sensor_id;sensor_type;location;lat;lon;timestamp;P1;durP1;ratioP1;P2;durP2;ratioP2
37877;SDS011;23715;53.652;8.516;2023-09-08T00:03:35;6.72;;;6.42;;
37877;SDS011;23715;53.652;8.516;2023-09-08T00:08:37;6.90;;;6.60;;
37877;SDS011;23715;53.652;8.516;2023-09-08T00:18:40;7.10;;;6.80;;
37877;SDS011;23715;53.652;8.516;2023-09-08T00:23:41;7.55;;;7.25;;
37877;SDS011;23715;53.652;8.516;2023-09-08T00:28:43;8.43;;;8.03;;
37877;SDS011;23715;53.652;8.516;2023-09-08T00:38:43;8.63;;;8.23;;
37877;SDS011;23715;53.652;8.516;2023-09-08T00:48:43;8.20;;;7.90;;
37877;SDS011;23715;53.652;8.516;2023-09-08T00:53:49;8.28;;;7.95;;
37877;SDS011;23715;53.652;8.516;2023-09-08T00:58:51;8.40;;;8.03;;
37877;SDS011;23715;53.652;8.516;2023-09-08T01:03:53;9.15;;;8.75;;
37877;SDS011;23715;53.652;8.516;2023-09-08T01:08:55;8.93;;;8.53;;
37877;SDS011;23715;53.652;8.516;2023-09-08T01:13:56;8.83;;;8.43;;
37877;SDS011;23715;53.652;8.516;2023-09-08T01:18:56;8.67;;;8.27;;
37877;SDS011;23715;53.652;8.516;2023-09-08T01:29:13;7.80;;;7.50;;
37877;SDS011;23715;53.652;8.516;2023-09-08T01:34:18;8.15;;;7.85;;
37877;SDS011;23715;53.652;8.516;2023-09-08T01:39:19;7.50;;;7.20;;
37877;SDS011;23715;53.652;8.516;2023-09-08T01:44:19;8.28;;;7.87;;
37877;SDS011;23715;53.652;8.516;2023-09-08T01:49:20;7.80;;;7.50;;
37877;SDS011;23715;53.652;8.516;2023-09-08T01:54:21;9.60;;;9.03;;
37877;SDS011;23715;53.652;8.516;2023-09-08T01:59:23;8.65;;;8.15;;
37877;SDS011;23715;53.652;8.516;2023-09-08T02:04:23;7.80;;;7.50;;
37877;SDS011;23715;53.652;8.516;2023-09-08T02:09:32;8.83;;;8.43;;
37877;SDS011;23715;53.652;8.516;2023-09-08T02:14:35;8.95;;;8.55;;
37877;SDS011;23715;53.652;8.516;2023-09-08T02:19:37;8.08;;;7.78;;
37877;SDS011;23715;53.652;8.516;2023-09-08T02:24:38;9.07;;;8.67;;
37877;SDS011;23715;53.652;8.516;2023-09-08T02:29:38;8.13;;;7.83;;
37877;SDS011;23715;53.652;8.516;2023-09-08T02:34:38;8.20;;;7.90;;
37877;SDS011;23715;53.652;8.516;2023-09-08T02:39:41;8.63;;;8.23;;
37877;SDS011;23715;53.652;8.516;2023-09-08T02:44:43;9.00;;;8.60;;
37877;SDS011;23715;53.652;8.516;2023-09-08T02:54:43;8.43;;;8.05;;
37877;SDS011;23715;53.652;8.516;2023-09-08T02:59:48;8.15;;;7.85;;
37877;SDS011;23715;53.652;8.516;2023-09-08T03:04:46;8.63;;;8.23;;
37877;SDS011;23715;53.652;8.516;2023-09-08T03:09:47;8.13;;;7.83;;
37877;SDS011;23715;53.652;8.516;2023-09-08T03:19:47;7.08;;;6.78;;
37877;SDS011;23715;53.652;8.516;2023-09-08T03:24:47;7.62;;;7.33;;
37877;SDS011;23715;53.652;8.516;2023-09-08T03:29:47;7.70;;;7.40;;
37877;SDS011;23715;53.652;8.516;2023-09-08T03:34:48;6.62;;;6.33;;
37877;SDS011;23715;53.652;8.516;2023-09-08T03:44:48;6.20;;;5.90;;
37877;SDS011;23715;53.652;8.516;2023-09-08T03:49:48;5.92;;;5.72;;
37877;SDS011;23715;53.652;8.516;2023-09-08T03:54:49;6.20;;;5.93;;
37877;SDS011;23715;53.652;8.516;2023-09-08T03:59:49;6.70;;;6.40;;
37877;SDS011;23715;53.652;8.516;2023-09-08T04:04:49;6.78;;;6.47;;
37877;SDS011;23715;53.652;8.516;2023-09-08T04:09:50;6.60;;;6.30;;
37877;SDS011;23715;53.652;8.516;2023-09-08T04:14:50;6.17;;;5.97;;
37877;SDS011;23715;53.652;8.516;2023-09-08T04:19:50;7.72;;;7.35;;
37877;SDS011;23715;53.652;8.516;2023-09-08T04:29:56;6.55;;;6.25;;
37877;SDS011;23715;53.652;8.516;2023-09-08T04:35:05;6.12;;;5.92;;
37877;SDS011;23715;53.652;8.516;2023-09-08T04:40:11;6.83;;;6.53;;
37877;SDS011;23715;53.652;8.516;2023-09-08T04:45:39;6.28;;;5.97;;
37877;SDS011;23715;53.652;8.516;2023-09-08T04:55:47;6.58;;;6.28;;
37877;SDS011;23715;53.652;8.516;2023-09-08T05:00:49;7.22;;;6.92;;
37877;SDS011;23715;53.652;8.516;2023-09-08T05:05:49;7.40;;;7.10;;
37877;SDS011;23715;53.652;8.516;2023-09-08T05:10:50;6.72;;;6.42;;
37877;SDS011;23715;53.652;8.516;2023-09-08T05:15:50;7.00;;;6.70;;
37877;SDS011;23715;53.652;8.516;2023-09-08T05:20:52;7.83;;;7.37;;
37877;SDS011;23715;53.652;8.516;2023-09-08T05:26:00;7.20;;;6.90;;
37877;SDS011;23715;53.652;8.516;2023-09-08T05:31:01;7.10;;;6.75;;
37877;SDS011;23715;53.652;8.516;2023-09-08T05:36:02;6.92;;;6.62;;
37877;SDS011;23715;53.652;8.516;2023-09-08T05:41:03;6.83;;;6.53;;
37877;SDS011;23715;53.652;8.516;2023-09-08T05:46:04;7.40;;;7.07;;
37877;SDS011;23715;53.652;8.516;2023-09-08T05:51:04;7.85;;;7.35;;
37877;SDS011;23715;53.652;8.516;2023-09-08T05:56:11;6.90;;;6.60;;
37877;SDS011;23715;53.652;8.516;2023-09-08T06:01:08;7.65;;;7.03;;
37877;SDS011;23715;53.652;8.516;2023-09-08T06:06:14;6.70;;;6.40;;
37877;SDS011;23715;53.652;8.516;2023-09-08T06:11:14;8.63;;;8.03;;
37877;SDS011;23715;53.652;8.516;2023-09-08T06:16:24;7.00;;;6.70;;
37877;SDS011;23715;53.652;8.516;2023-09-08T06:21:24;7.75;;;7.45;;
37877;SDS011;23715;53.652;8.516;2023-09-08T06:26:27;7.67;;;7.37;;
37877;SDS011;23715;53.652;8.516;2023-09-08T06:31:28;7.95;;;7.65;;
37877;SDS011;23715;53.652;8.516;2023-09-08T06:36:29;8.18;;;7.78;;
37877;SDS011;23715;53.652;8.516;2023-09-08T06:41:29;7.97;;;7.67;;
37877;SDS011;23715;53.652;8.516;2023-09-08T06:46:30;7.20;;;6.90;;
37877;SDS011;23715;53.652;8.516;2023-09-08T06:51:30;7.35;;;7.05;;
37877;SDS011;23715;53.652;8.516;2023-09-08T06:56:31;7.10;;;6.80;;
37877;SDS011;23715;53.652;8.516;2023-09-08T07:06:33;6.83;;;6.53;;
37877;SDS011;23715;53.652;8.516;2023-09-08T07:11:36;7.10;;;6.80;;
37877;SDS011;23715;53.652;8.516;2023-09-08T07:16:37;7.05;;;6.75;;
37877;SDS011;23715;53.652;8.516;2023-09-08T07:21:38;6.95;;;6.60;;
37877;SDS011;23715;53.652;8.516;2023-09-08T07:31:38;7.37;;;6.97;;
37877;SDS011;23715;53.652;8.516;2023-09-08T07:36:39;6.60;;;6.30;;
37877;SDS011;23715;53.652;8.516;2023-09-08T07:41:40;7.17;;;6.87;;
37877;SDS011;23715;53.652;8.516;2023-09-08T07:46:41;6.90;;;6.60;;
37877;SDS011;23715;53.652;8.516;2023-09-08T07:51:43;7.00;;;6.70;;
37877;SDS011;23715;53.652;8.516;2023-09-08T07:56:43;6.83;;;6.53;;
37877;SDS011;23715;53.652;8.516;2023-09-08T08:01:44;6.97;;;6.67;;
37877;SDS011;23715;53.652;8.516;2023-09-08T08:06:44;6.90;;;6.60;;
37877;SDS011;23715;53.652;8.516;2023-09-08T08:11:46;6.58;;;6.28;;
37877;SDS011;23715;53.652;8.516;2023-09-08T08:16:46;6.57;;;6.27;;
37877;SDS011;23715;53.652;8.516;2023-09-08T08:21:46;7.03;;;6.72;;
37877;SDS011;23715;53.652;8.516;2023-09-08T08:31:46;6.85;;;6.55;;
37877;SDS011;23715;53.652;8.516;2023-09-08T08:36:47;7.35;;;7.05;;
37877;SDS011;23715;53.652;8.516;2023-09-08T08:41:48;6.97;;;6.67;;
37877;SDS011;23715;53.652;8.516;2023-09-08T08:46:48;6.10;;;5.90;;
37877;SDS011;23715;53.652;8.516;2023-09-08T08:51:48;7.17;;;6.87;;
37877;SDS011;23715;53.652;8.516;2023-09-08T08:56:51;7.77;;;7.47;;
37877;SDS011;23715;53.652;8.516;2023-09-08T09:01:52;7.08;;;6.78;;
37877;SDS011;23715;53.652;8.516;2023-09-08T09:06:54;7.42;;;7.08;;
37877;SDS011;23715;53.652;8.516;2023-09-08T09:11:55;6.60;;;6.30;;
37877;SDS011;23715;53.652;8.516;2023-09-08T09:16:57;6.70;;;6.40;;
37877;SDS011;23715;53.652;8.516;2023-09-08T09:21:58;7.67;;;7.28;;
37877;SDS011;23715;53.652;8.516;2023-09-08T09:26:59;7.03;;;6.60;;
37877;SDS011;23715;53.652;8.516;2023-09-08T09:32:04;7.67;;;7.28;;
37877;SDS011;23715;53.652;8.516;2023-09-08T09:37:06;7.05;;;6.75;;
37877;SDS011;23715;53.652;8.516;2023-09-08T09:42:08;7.37;;;7.07;;
37877;SDS011;23715;53.652;8.516;2023-09-08T09:47:09;6.60;;;6.30;;
37877;SDS011;23715;53.652;8.516;2023-09-08T09:52:11;6.83;;;6.53;;
37877;SDS011;23715;53.652;8.516;2023-09-08T09:57:13;7.87;;;7.47;;
37877;SDS011;23715;53.652;8.516;2023-09-08T10:02:14;7.45;;;7.15;;
37877;SDS011;23715;53.652;8.516;2023-09-08T10:07:14;7.42;;;6.92;;
37877;SDS011;23715;53.652;8.516;2023-09-08T10:12:15;7.27;;;6.97;;
37877;SDS011;23715;53.652;8.516;2023-09-08T10:17:18;7.80;;;7.37;;
37877;SDS011;23715;53.652;8.516;2023-09-08T10:22:23;8.28;;;7.83;;
37877;SDS011;23715;53.652;8.516;2023-09-08T10:27:27;7.70;;;7.30;;
37877;SDS011;23715;53.652;8.516;2023-09-08T10:32:33;7.33;;;7.03;;
37877;SDS011;23715;53.652;8.516;2023-09-08T10:37:35;7.87;;;7.58;;
37877;SDS011;23715;53.652;8.516;2023-09-08T10:42:39;8.53;;;7.92;;
37877;SDS011;23715;53.652;8.516;2023-09-08T10:53:20;7.08;;;6.78;;
37877;SDS011;23715;53.652;8.516;2023-09-08T10:58:10;9.00;;;8.60;;
37877;SDS011;23715;53.652;8.516;2023-09-08T11:03:11;9.33;;;8.93;;
37877;SDS011;23715;53.652;8.516;2023-09-08T11:08:13;9.18;;;8.78;;
37877;SDS011;23715;53.652;8.516;2023-09-08T11:13:17;9.70;;;9.30;;
37877;SDS011;23715;53.652;8.516;2023-09-08T11:18:25;9.35;;;8.90;;
37877;SDS011;23715;53.652;8.516;2023-09-08T11:23:38;10.43;;;9.93;;
37877;SDS011;23715;53.652;8.516;2023-09-08T11:28:38;10.35;;;9.85;;
37877;SDS011;23715;53.652;8.516;2023-09-08T11:33:45;9.98;;;9.58;;
37877;SDS011;23715;53.652;8.516;2023-09-08T11:38:56;10.53;;;10.03;;
37877;SDS011;23715;53.652;8.516;2023-09-08T11:43:54;9.63;;;9.23;;
37877;SDS011;23715;53.652;8.516;2023-09-08T11:48:54;10.25;;;9.75;;
37877;SDS011;23715;53.652;8.516;2023-09-08T11:54:02;9.43;;;9.03;;
37877;SDS011;23715;53.652;8.516;2023-09-08T11:59:06;9.43;;;8.95;;
37877;SDS011;23715;53.652;8.516;2023-09-08T12:04:16;9.80;;;9.40;;
37877;SDS011;23715;53.652;8.516;2023-09-08T12:09:25;9.90;;;9.50;;
37877;SDS011;23715;53.652;8.516;2023-09-08T12:14:25;10.25;;;9.65;;
37877;SDS011;23715;53.652;8.516;2023-09-08T12:19:30;9.58;;;9.18;;
37877;SDS011;23715;53.652;8.516;2023-09-08T12:24:48;9.03;;;8.63;;
37877;SDS011;23715;53.652;8.516;2023-09-08T12:29:57;9.30;;;8.90;;
37877;SDS011;23715;53.652;8.516;2023-09-08T12:35:01;9.77;;;9.27;;
37877;SDS011;23715;53.652;8.516;2023-09-08T12:40:02;9.78;;;9.28;;
37877;SDS011;23715;53.652;8.516;2023-09-08T12:45:03;8.70;;;8.30;;
37877;SDS011;23715;53.652;8.516;2023-09-08T12:50:03;8.85;;;8.45;;
37877;SDS011;23715;53.652;8.516;2023-09-08T12:55:06;9.40;;;9.00;;
37877;SDS011;23715;53.652;8.516;2023-09-08T13:00:08;11.25;;;10.68;;
37877;SDS011;23715;53.652;8.516;2023-09-08T13:05:12;10.88;;;10.38;;
37877;SDS011;23715;53.652;8.516;2023-09-08T13:10:17;10.33;;;9.83;;
37877;SDS011;23715;53.652;8.516;2023-09-08T13:15:23;9.75;;;9.25;;
37877;SDS011;23715;53.652;8.516;2023-09-08T13:20:24;9.95;;;9.55;;
37877;SDS011;23715;53.652;8.516;2023-09-08T13:25:26;9.80;;;9.40;;
37877;SDS011;23715;53.652;8.516;2023-09-08T13:30:28;10.20;;;9.70;;
37877;SDS011;23715;53.652;8.516;2023-09-08T13:35:35;9.65;;;9.25;;
37877;SDS011;23715;53.652;8.516;2023-09-08T13:40:39;10.43;;;9.93;;
37877;SDS011;23715;53.652;8.516;2023-09-08T13:45:42;9.48;;;9.08;;
37877;SDS011;23715;53.652;8.516;2023-09-08T13:50:46;10.53;;;10.03;;
37877;SDS011;23715;53.652;8.516;2023-09-08T14:06:07;11.50;;;10.77;;
37877;SDS011;23715;53.652;8.516;2023-09-08T14:11:08;10.72;;;10.10;;
37877;SDS011;23715;53.652;8.516;2023-09-08T14:16:11;10.63;;;10.13;;
37877;SDS011;23715;53.652;8.516;2023-09-08T14:21:17;12.23;;;11.63;;
37877;SDS011;23715;53.652;8.516;2023-09-08T14:26:24;10.80;;;10.30;;
37877;SDS011;23715;53.652;8.516;2023-09-08T14:31:34;10.93;;;10.43;;
37877;SDS011;23715;53.652;8.516;2023-09-08T14:36:38;10.85;;;10.35;;
37877;SDS011;23715;53.652;8.516;2023-09-08T14:41:41;11.30;;;10.80;;
37877;SDS011;23715;53.652;8.516;2023-09-08T14:46:40;10.82;;;10.32;;
37877;SDS011;23715;53.652;8.516;2023-09-08T14:51:44;10.68;;;10.18;;
37877;SDS011;23715;53.652;8.516;2023-09-08T14:56:45;11.50;;;11.00;;
37877;SDS011;23715;53.652;8.516;2023-09-08T15:01:47;10.80;;;10.30;;
37877;SDS011;23715;53.652;8.516;2023-09-08T15:06:53;10.50;;;10.00;;
37877;SDS011;23715;53.652;8.516;2023-09-08T15:11:53;10.00;;;9.60;;
37877;SDS011;23715;53.652;8.516;2023-09-08T15:16:53;11.77;;;11.17;;
37877;SDS011;23715;53.652;8.516;2023-09-08T15:21:55;10.55;;;10.05;;
37877;SDS011;23715;53.652;8.516;2023-09-08T15:26:56;11.18;;;10.68;;
37877;SDS011;23715;53.652;8.516;2023-09-08T15:32:02;10.65;;;10.15;;
37877;SDS011;23715;53.652;8.516;2023-09-08T15:37:06;10.55;;;10.05;;
37877;SDS011;23715;53.652;8.516;2023-09-08T15:42:07;9.55;;;9.15;;
37877;SDS011;23715;53.652;8.516;2023-09-08T15:47:08;9.95;;;9.55;;
37877;SDS011;23715;53.652;8.516;2023-09-08T15:52:11;10.70;;;10.10;;
37877;SDS011;23715;53.652;8.516;2023-09-08T15:57:15;10.88;;;10.38;;
37877;SDS011;23715;53.652;8.516;2023-09-08T16:02:17;9.83;;;9.43;;
37877;SDS011;23715;53.652;8.516;2023-09-08T16:07:18;10.43;;;9.97;;
37877;SDS011;23715;53.652;8.516;2023-09-08T16:12:18;9.53;;;9.13;;
37877;SDS011;23715;53.652;8.516;2023-09-08T16:17:20;9.75;;;9.35;;
37877;SDS011;23715;53.652;8.516;2023-09-08T16:22:22;11.45;;;10.65;;
37877;SDS011;23715;53.652;8.516;2023-09-08T16:27:22;9.20;;;8.80;;
37877;SDS011;23715;53.652;8.516;2023-09-08T16:32:24;9.28;;;8.88;;
37877;SDS011;23715;53.652;8.516;2023-09-08T16:37:24;9.75;;;9.35;;
37877;SDS011;23715;53.652;8.516;2023-09-08T16:42:26;9.35;;;8.95;;
37877;SDS011;23715;53.652;8.516;2023-09-08T16:47:28;9.30;;;8.90;;
37877;SDS011;23715;53.652;8.516;2023-09-08T16:52:30;8.68;;;8.28;;
37877;SDS011;23715;53.652;8.516;2023-09-08T16:57:32;8.35;;;8.00;;
37877;SDS011;23715;53.652;8.516;2023-09-08T17:02:33;8.45;;;8.05;;
37877;SDS011;23715;53.652;8.516;2023-09-08T17:07:41;9.68;;;9.18;;
37877;SDS011;23715;53.652;8.516;2023-09-08T17:12:41;8.40;;;8.00;;
37877;SDS011;23715;53.652;8.516;2023-09-08T17:17:43;8.73;;;8.33;;
37877;SDS011;23715;53.652;8.516;2023-09-08T17:22:46;8.00;;;7.70;;
37877;SDS011;23715;53.652;8.516;2023-09-08T17:27:50;10.18;;;8.23;;
37877;SDS011;23715;53.652;8.516;2023-09-08T17:32:53;8.03;;;7.70;;
37877;SDS011;23715;53.652;8.516;2023-09-08T17:37:55;8.20;;;7.62;;
37877;SDS011;23715;53.652;8.516;2023-09-08T17:42:55;7.85;;;7.25;;
37877;SDS011;23715;53.652;8.516;2023-09-08T17:47:56;7.60;;;7.20;;
37877;SDS011;23715;53.652;8.516;2023-09-08T17:53:00;6.55;;;6.25;;
37877;SDS011;23715;53.652;8.516;2023-09-08T17:58:05;6.75;;;6.45;;
37877;SDS011;23715;53.652;8.516;2023-09-08T18:03:01;6.50;;;6.20;;
37877;SDS011;23715;53.652;8.516;2023-09-08T18:08:03;7.50;;;7.10;;
37877;SDS011;23715;53.652;8.516;2023-09-08T18:13:08;6.72;;;6.42;;
37877;SDS011;23715;53.652;8.516;2023-09-08T18:18:12;6.60;;;6.30;;
37877;SDS011;23715;53.652;8.516;2023-09-08T18:23:12;7.08;;;6.78;;
37877;SDS011;23715;53.652;8.516;2023-09-08T18:28:19;8.33;;;7.83;;
37877;SDS011;23715;53.652;8.516;2023-09-08T18:33:15;7.50;;;7.20;;
37877;SDS011;23715;53.652;8.516;2023-09-08T18:38:17;7.03;;;6.72;;
37877;SDS011;23715;53.652;8.516;2023-09-08T18:43:29;7.25;;;6.95;;
37877;SDS011;23715;53.652;8.516;2023-09-08T18:48:29;6.87;;;6.58;;
37877;SDS011;23715;53.652;8.516;2023-09-08T18:53:45;7.97;;;7.58;;
37877;SDS011;23715;53.652;8.516;2023-09-08T18:58:58;6.40;;;6.10;;
37877;SDS011;23715;53.652;8.516;2023-09-08T19:04:06;6.67;;;6.37;;
37877;SDS011;23715;53.652;8.516;2023-09-08T19:09:09;6.90;;;6.60;;
37877;SDS011;23715;53.652;8.516;2023-09-08T19:14:19;6.40;;;6.10;;
37877;SDS011;23715;53.652;8.516;2023-09-08T19:19:14;6.58;;;6.28;;
37877;SDS011;23715;53.652;8.516;2023-09-08T19:24:18;7.47;;;7.08;;
37877;SDS011;23715;53.652;8.516;2023-09-08T19:29:20;8.83;;;8.00;;
37877;SDS011;23715;53.652;8.516;2023-09-08T19:39:32;6.40;;;6.10;;
37877;SDS011;23715;53.652;8.516;2023-09-08T19:44:36;6.92;;;6.62;;
37877;SDS011;23715;53.652;8.516;2023-09-08T19:49:45;6.00;;;5.80;;
37877;SDS011;23715;53.652;8.516;2023-09-08T19:59:58;6.90;;;6.60;;
37877;SDS011;23715;53.652;8.516;2023-09-08T20:05:03;6.10;;;5.90;;
37877;SDS011;23715;53.652;8.516;2023-09-08T20:10:08;6.70;;;6.40;;
37877;SDS011;23715;53.652;8.516;2023-09-08T20:15:13;6.60;;;6.30;;
37877;SDS011;23715;53.652;8.516;2023-09-08T20:20:17;6.90;;;6.60;;
37877;SDS011;23715;53.652;8.516;2023-09-08T20:25:21;6.58;;;6.28;;
37877;SDS011;23715;53.652;8.516;2023-09-08T20:30:29;7.00;;;6.70;;
37877;SDS011;23715;53.652;8.516;2023-09-08T20:35:35;7.00;;;6.70;;
37877;SDS011;23715;53.652;8.516;2023-09-08T20:40:47;6.83;;;6.53;;
37877;SDS011;23715;53.652;8.516;2023-09-08T20:45:53;7.67;;;7.25;;
37877;SDS011;23715;53.652;8.516;2023-09-08T20:51:00;6.58;;;6.28;;
37877;SDS011;23715;53.652;8.516;2023-09-08T20:56:11;7.10;;;6.80;;
37877;SDS011;23715;53.652;8.516;2023-09-08T21:01:14;6.90;;;6.60;;
37877;SDS011;23715;53.652;8.516;2023-09-08T21:06:31;7.55;;;7.08;;
37877;SDS011;23715;53.652;8.516;2023-09-08T21:11:27;7.53;;;7.22;;
37877;SDS011;23715;53.652;8.516;2023-09-08T21:16:29;8.00;;;7.45;;
37877;SDS011;23715;53.652;8.516;2023-09-08T21:21:30;7.60;;;7.30;;
37877;SDS011;23715;53.652;8.516;2023-09-08T21:26:31;9.25;;;8.65;;
37877;SDS011;23715;53.652;8.516;2023-09-08T21:31:32;8.23;;;7.85;;
37877;SDS011;23715;53.652;8.516;2023-09-08T21:36:43;8.20;;;7.80;;
37877;SDS011;23715;53.652;8.516;2023-09-08T21:41:44;6.97;;;6.67;;
37877;SDS011;23715;53.652;8.516;2023-09-08T21:46:57;7.70;;;7.40;;
37877;SDS011;23715;53.652;8.516;2023-09-08T21:51:51;8.13;;;7.80;;
37877;SDS011;23715;53.652;8.516;2023-09-08T22:01:57;7.08;;;6.78;;
37877;SDS011;23715;53.652;8.516;2023-09-08T22:06:56;7.40;;;7.10;;
37877;SDS011;23715;53.652;8.516;2023-09-08T22:12:00;7.30;;;7.00;;
37877;SDS011;23715;53.652;8.516;2023-09-08T22:17:02;7.30;;;7.00;;
37877;SDS011;23715;53.652;8.516;2023-09-08T22:22:03;7.15;;;6.85;;
37877;SDS011;23715;53.652;8.516;2023-09-08T22:27:06;7.78;;;7.42;;
37877;SDS011;23715;53.652;8.516;2023-09-08T22:32:10;7.42;;;7.12;;
37877;SDS011;23715;53.652;8.516;2023-09-08T22:37:16;7.70;;;7.40;;
37877;SDS011;23715;53.652;8.516;2023-09-08T22:42:18;8.45;;;8.05;;
37877;SDS011;23715;53.652;8.516;2023-09-08T22:47:20;12.78;;;8.88;;
37877;SDS011;23715;53.652;8.516;2023-09-08T22:52:24;7.60;;;7.30;;
37877;SDS011;23715;53.652;8.516;2023-09-08T22:57:26;7.60;;;7.30;;
37877;SDS011;23715;53.652;8.516;2023-09-08T23:02:28;8.15;;;7.78;;
37877;SDS011;23715;53.652;8.516;2023-09-08T23:07:32;7.40;;;7.03;;
37877;SDS011;23715;53.652;8.516;2023-09-08T23:12:32;7.28;;;6.97;;
37877;SDS011;23715;53.652;8.516;2023-09-08T23:17:34;7.92;;;7.50;;
37877;SDS011;23715;53.652;8.516;2023-09-08T23:22:35;6.67;;;6.37;;
37877;SDS011;23715;53.652;8.516;2023-09-08T23:27:35;8.00;;;7.60;;
37877;SDS011;23715;53.652;8.516;2023-09-08T23:32:42;6.85;;;6.55;;
37877;SDS011;23715;53.652;8.516;2023-09-08T23:37:39;6.95;;;6.65;;
37877;SDS011;23715;53.652;8.516;2023-09-08T23:42:42;6.60;;;6.30;;
37877;SDS011;23715;53.652;8.516;2023-09-08T23:47:43;7.67;;;7.17;;
37877;SDS011;23715;53.652;8.516;2023-09-08T23:52:47;7.45;;;7.15;;
37877;SDS011;23715;53.652;8.516;2023-09-08T23:57:47;6.70;;;6.40;;
